createdAt,value
2018-03-15T08:28:10.318Z,8.90
2018-03-15T08:30:38.578Z,8.90
2018-03-15T08:33:06.042Z,8.90
2018-03-15T08:35:35.046Z,8.90
2018-03-15T08:38:03.293Z,8.80
2018-03-15T08:40:30.763Z,8.80
2018-03-15T08:42:58.250Z,8.80
2018-03-15T08:45:26.488Z,8.90
2018-03-15T08:47:53.952Z,8.90
2018-03-15T08:50:21.434Z,8.90
2018-03-15T08:52:49.695Z,9.00
2018-03-15T08:55:17.976Z,9.10
2018-03-15T08:57:45.477Z,9.10
2018-03-15T09:00:12.966Z,9.20
2018-03-15T09:02:41.370Z,9.40
2018-03-15T09:05:08.842Z,9.50
2018-03-15T09:07:37.111Z,9.80
2018-03-15T09:10:05.366Z,9.90
2018-03-15T09:12:32.834Z,9.90
2018-03-15T09:15:00.318Z,10.00
2018-03-15T09:17:28.558Z,10.10
2018-03-15T09:19:56.042Z,10.10
2018-03-15T09:22:24.281Z,10.30
2018-03-15T09:24:51.773Z,10.20
2018-03-15T09:27:20.096Z,10.50
2018-03-15T09:29:47.562Z,10.50
2018-03-15T09:32:15.061Z,10.40
2018-03-15T09:34:43.305Z,10.60
2018-03-15T09:37:10.806Z,10.50
2018-03-15T09:39:39.055Z,10.70
2018-03-15T09:42:06.536Z,10.70
2018-03-15T09:44:34.794Z,10.90
2018-03-15T09:47:02.282Z,10.90
2018-03-15T09:49:30.558Z,11.00
2018-03-15T09:51:58.061Z,11.00
2018-03-15T09:54:25.565Z,11.10
2018-03-15T09:56:53.827Z,11.20
2018-03-15T09:59:21.338Z,11.20
2018-03-15T10:01:48.854Z,11.20
2018-03-15T10:04:17.114Z,11.50
2018-03-15T10:06:44.603Z,11.50
2018-03-15T10:09:12.106Z,11.50
2018-03-15T10:11:39.582Z,11.50
2018-03-15T10:14:07.084Z,11.40
2018-03-15T10:16:34.584Z,11.40
2018-03-15T10:19:02.063Z,11.50
2018-03-15T10:21:29.650Z,11.50
2018-03-15T10:23:57.902Z,11.70
2018-03-15T10:26:25.413Z,11.70
2018-03-15T10:28:52.902Z,11.90
2018-03-15T10:31:20.396Z,12.00
2018-03-15T10:33:48.652Z,12.00
2018-03-15T10:36:16.132Z,12.00
2018-03-15T10:38:44.402Z,12.30
2018-03-15T10:41:12.658Z,12.50
2018-03-15T10:43:40.158Z,12.50
2018-03-15T10:46:08.419Z,12.40
2018-03-15T10:48:36.674Z,12.50
2018-03-15T10:51:04.170Z,12.50
2018-03-15T10:53:31.648Z,12.40
2018-03-15T10:55:59.126Z,12.60
2018-03-15T10:58:26.644Z,12.60
2018-03-15T11:00:59.825Z,12.60
2018-03-15T11:03:33.690Z,12.70
2018-03-15T11:06:06.894Z,12.70
2018-03-15T11:08:35.322Z,12.80
2018-03-15T11:11:02.827Z,12.70
2018-03-15T11:13:30.379Z,12.80
2018-03-15T11:16:20.162Z,12.80
2018-03-15T11:18:47.643Z,12.80
2018-03-15T11:21:15.923Z,12.90
2018-03-15T11:23:44.255Z,13.00
2018-03-15T11:26:11.696Z,13.00
2018-03-15T11:28:39.257Z,13.00
2018-03-15T11:31:06.738Z,13.10
2018-03-15T11:33:34.245Z,13.10
2018-03-15T11:36:02.498Z,13.20
2018-03-15T11:38:30.012Z,13.20
2018-03-15T11:40:57.533Z,13.20
2018-03-15T11:43:25.020Z,13.30
2018-03-15T11:45:52.578Z,13.30
2018-03-15T11:48:20.079Z,13.40
2018-03-15T11:50:47.722Z,13.40
2018-03-15T11:53:15.390Z,13.20
2018-03-15T11:55:42.930Z,13.20
2018-03-15T11:58:10.472Z,13.20
2018-03-15T12:00:38.735Z,13.30
2018-03-15T12:03:06.223Z,13.30
2018-03-15T12:05:33.723Z,13.40
2018-03-15T12:08:01.222Z,13.50
2018-03-15T12:10:29.553Z,13.60
2018-03-15T12:12:57.075Z,13.60
2018-03-15T12:15:24.577Z,13.60
2018-03-15T12:17:52.087Z,13.60
2018-03-15T12:20:20.331Z,13.70
2018-03-15T12:22:49.334Z,13.60
2018-03-15T12:25:16.810Z,13.60
2018-03-15T12:27:45.044Z,13.60
2018-03-15T12:30:12.542Z,13.50
2018-03-15T12:32:40.785Z,13.40
2018-03-15T12:35:08.262Z,13.40
2018-03-15T12:37:35.738Z,13.40
2018-03-15T12:40:03.978Z,13.50
2018-03-15T12:42:31.468Z,13.50
2018-03-15T12:44:59.778Z,13.40
2018-03-15T12:47:27.246Z,13.40
2018-03-15T12:49:54.731Z,13.60
2018-03-15T12:52:22.218Z,13.50
2018-03-15T12:54:50.474Z,13.40
2018-03-15T12:57:17.951Z,13.40
2018-03-15T12:59:46.234Z,13.50
2018-03-15T13:02:14.786Z,13.50
2018-03-15T13:04:42.262Z,13.50
2018-03-15T13:07:09.774Z,13.40
2018-03-15T13:09:37.273Z,13.30
2018-03-15T13:12:04.823Z,13.20
2018-03-15T13:14:32.302Z,13.20
2018-03-15T13:17:00.559Z,13.20
2018-03-15T13:19:28.867Z,13.20
2018-03-15T13:21:57.098Z,13.10
2018-03-15T13:24:24.558Z,13.10
2018-03-15T13:26:52.089Z,13.10
2018-03-15T13:29:19.667Z,13.20
2018-03-15T13:31:47.222Z,13.20
2018-03-15T13:34:14.693Z,13.20
2018-03-15T13:36:42.177Z,13.30
2018-03-15T13:39:09.669Z,13.30
2018-03-15T13:41:37.204Z,13.40
2018-03-15T13:44:05.484Z,13.40
2018-03-15T13:46:33.905Z,13.40
2018-03-15T13:49:02.508Z,13.40
2018-03-15T13:51:29.998Z,13.50
2018-03-15T13:53:58.317Z,13.50
2018-03-15T13:56:26.354Z,13.50
2018-03-15T13:58:54.609Z,13.60
2018-03-15T14:01:22.071Z,13.60
2018-03-15T14:03:50.347Z,13.80
2018-03-15T14:06:17.824Z,13.70
2018-03-15T14:08:46.102Z,13.80
2018-03-15T14:11:14.363Z,13.80
2018-03-15T14:13:41.834Z,13.80
2018-03-15T14:16:11.263Z,13.70
2018-03-15T14:18:38.758Z,13.70
2018-03-15T14:21:06.267Z,13.60
2018-03-15T14:23:34.569Z,13.40
2018-03-15T14:26:02.137Z,13.30
2018-03-15T14:28:29.684Z,13.30
2018-03-15T14:30:58.186Z,13.30
2018-03-15T14:33:25.799Z,13.30
2018-03-15T14:35:54.066Z,13.20
2018-03-15T14:38:22.310Z,13.20
2018-03-15T14:40:49.790Z,13.20
2018-03-15T14:43:17.301Z,13.20
2018-03-15T14:45:44.868Z,13.10
2018-03-15T14:48:12.356Z,13.10
2018-03-15T14:50:39.843Z,13.20
2018-03-15T14:53:08.109Z,13.20
2018-03-15T14:55:35.663Z,13.10
2018-03-15T14:58:04.008Z,13.20
2018-03-15T15:00:31.471Z,13.20
2018-03-15T15:02:59.047Z,13.30
2018-03-15T15:05:26.582Z,13.30
2018-03-15T15:07:55.069Z,13.30
2018-03-15T15:10:22.612Z,13.30
2018-03-15T15:12:50.191Z,13.40
2018-03-15T15:15:18.448Z,13.40
2018-03-15T15:17:46.014Z,13.30
2018-03-15T15:20:14.606Z,13.40
2018-03-15T15:22:42.116Z,13.30
2018-03-15T15:25:10.840Z,13.30
2018-03-15T15:27:38.369Z,13.20
2018-03-15T15:30:06.650Z,13.10
2018-03-15T15:32:34.914Z,13.00
2018-03-15T15:35:03.207Z,12.90
2018-03-15T15:37:31.442Z,12.90
2018-03-15T15:39:58.939Z,12.90
2018-03-15T15:42:27.262Z,12.80
2018-03-15T15:44:54.748Z,12.80
2018-03-15T15:47:22.270Z,12.80
2018-03-15T15:49:49.754Z,12.80
2018-03-15T15:52:17.256Z,12.80
2018-03-15T15:54:45.507Z,12.70
2018-03-15T15:57:13.803Z,12.70
2018-03-15T15:59:42.042Z,12.70
2018-03-15T16:02:09.542Z,12.70
2018-03-15T16:04:37.859Z,12.70
2018-03-15T16:07:05.354Z,12.60
2018-03-15T16:09:32.881Z,12.60
2018-03-15T16:12:00.422Z,12.60
2018-03-15T16:14:28.049Z,12.50
2018-03-15T16:16:56.327Z,12.40
2018-03-15T16:19:24.622Z,12.40
2018-03-15T16:21:52.153Z,12.40
2018-03-15T16:24:19.674Z,12.40
2018-03-15T16:26:47.170Z,12.40
2018-03-15T16:29:15.411Z,12.30
2018-03-15T16:31:42.895Z,12.30
2018-03-15T16:34:11.944Z,12.30
2018-03-15T16:36:39.422Z,12.30
2018-03-15T16:39:07.333Z,12.30
2018-03-15T16:41:36.389Z,12.20
2018-03-15T16:44:03.871Z,12.20
2018-03-15T16:46:31.341Z,12.20
2018-03-15T16:48:59.644Z,12.20
2018-03-15T16:51:27.094Z,12.20
2018-03-15T16:53:55.379Z,12.20
2018-03-15T16:56:22.894Z,12.20
2018-03-15T16:58:50.376Z,12.20
2018-03-15T17:01:18.687Z,12.20
2018-03-15T17:03:46.188Z,12.10
2018-03-15T17:06:13.674Z,12.20
2018-03-15T17:08:41.948Z,12.10
2018-03-15T17:11:10.199Z,12.10
2018-03-15T17:13:37.818Z,12.10
2018-03-15T17:16:05.410Z,12.10
2018-03-15T17:18:32.990Z,12.10
2018-03-15T17:21:00.906Z,12.10
2018-03-15T17:23:28.380Z,12.10
2018-03-15T17:25:56.201Z,12.10
2018-03-15T17:28:23.817Z,12.10
2018-03-15T17:30:51.305Z,12.00
2018-03-15T17:33:19.708Z,12.00
2018-03-15T17:35:47.409Z,12.00
2018-03-15T17:38:15.003Z,12.00
2018-03-15T17:40:42.515Z,12.00
2018-03-15T17:43:10.087Z,12.00
2018-03-15T17:45:37.583Z,12.00
2018-03-15T17:48:05.050Z,12.00
2018-03-15T17:50:32.559Z,12.00
2018-03-15T17:53:00.035Z,12.00
2018-03-15T17:55:27.542Z,12.00
2018-03-15T17:57:55.082Z,12.00
2018-03-15T18:00:23.355Z,11.90
2018-03-15T18:02:50.939Z,11.90
2018-03-15T18:05:19.203Z,11.80
2018-03-15T18:07:46.802Z,11.70
2018-03-15T18:10:17.116Z,11.70
2018-03-15T18:12:44.610Z,11.60
2018-03-15T18:15:16.877Z,11.40
2018-03-15T18:17:44.359Z,11.40
2018-03-15T18:20:11.931Z,11.30
2018-03-15T18:22:39.454Z,11.20
2018-03-15T18:25:06.958Z,11.10
2018-03-15T18:27:35.246Z,11.00
2018-03-15T18:30:03.482Z,11.00
2018-03-15T18:32:31.091Z,11.00
2018-03-15T18:34:58.626Z,11.00
2018-03-15T18:37:26.859Z,10.80
2018-03-15T18:39:54.356Z,10.90
2018-03-15T18:42:21.823Z,10.80
2018-03-15T18:44:50.070Z,10.60
2018-03-15T18:47:17.538Z,10.50
2018-03-15T18:49:45.038Z,10.50
2018-03-15T18:52:12.527Z,10.40
2018-03-15T18:54:40.002Z,10.30
2018-03-15T18:57:07.503Z,10.20
2018-03-15T18:59:34.999Z,10.10
2018-03-15T19:02:02.505Z,10.10
2018-03-15T19:04:30.753Z,10.10
2018-03-15T19:06:58.281Z,10.10
2018-03-15T19:09:25.758Z,10.10
2018-03-15T19:11:53.283Z,10.00
2018-03-15T19:15:57.473Z,10.00
2018-03-15T19:18:24.980Z,10.00
2018-03-15T19:20:52.693Z,9.90
2018-03-15T19:23:20.228Z,9.90
2018-03-15T19:25:48.198Z,9.80
2018-03-15T19:28:15.774Z,9.80
2018-03-15T19:30:44.315Z,9.70
2018-03-15T19:33:11.877Z,9.70
2018-03-15T19:35:39.731Z,9.70
2018-03-15T19:38:07.248Z,9.70
2018-03-15T19:40:34.747Z,9.60
2018-03-15T19:43:02.319Z,9.60
2018-03-15T19:45:29.835Z,9.60
2018-03-15T19:47:57.429Z,9.50
2018-03-15T19:50:25.029Z,9.40
2018-03-15T19:52:52.655Z,9.40
2018-03-15T19:55:20.227Z,9.40
2018-03-15T19:57:47.772Z,9.30
2018-03-15T20:00:15.276Z,9.30
2018-03-15T20:02:42.759Z,9.20
2018-03-15T20:05:10.222Z,9.30
2018-03-15T20:07:38.479Z,9.20
2018-03-15T20:10:05.992Z,9.20
2018-03-15T20:12:33.594Z,9.20
2018-03-15T20:15:01.478Z,9.10
2018-03-15T20:17:29.779Z,9.10
2018-03-15T20:19:58.011Z,9.10
2018-03-15T20:22:31.323Z,9.10
2018-03-15T20:24:58.888Z,9.10
2018-03-15T20:27:31.976Z,9.10
2018-03-15T20:30:00.229Z,9.10
2018-03-15T20:32:33.306Z,9.10
2018-03-15T20:35:00.801Z,9.10
2018-03-15T20:37:29.065Z,9.00
2018-03-15T20:40:02.346Z,9.00
2018-03-15T20:42:29.833Z,9.00
2018-03-15T20:44:58.186Z,9.10
2018-03-15T20:47:31.478Z,9.00
2018-03-15T20:49:59.001Z,9.00
2018-03-15T20:52:26.499Z,9.00
2018-03-15T20:54:54.913Z,9.00
2018-03-15T20:57:23.169Z,9.00
2018-03-15T20:59:50.672Z,9.00
2018-03-15T21:02:18.186Z,9.00
2018-03-15T21:04:45.736Z,9.00
2018-03-15T21:07:13.237Z,9.00
2018-03-15T21:09:40.738Z,9.00
2018-03-15T21:12:08.242Z,9.00
2018-03-15T21:14:36.509Z,9.00
2018-03-15T21:17:04.823Z,8.90
2018-03-15T21:19:32.331Z,8.90
2018-03-15T21:21:59.909Z,8.90
2018-03-15T21:24:27.432Z,8.90
2018-03-15T21:26:55.025Z,8.90
2018-03-15T21:29:22.466Z,8.90
2018-03-15T21:31:50.047Z,9.00
2018-03-15T21:34:18.325Z,9.00
2018-03-15T21:36:46.570Z,9.00
2018-03-15T21:39:14.095Z,9.00
2018-03-15T21:41:41.671Z,9.00
2018-03-15T21:44:09.220Z,8.90
2018-03-15T21:46:37.469Z,8.90
2018-03-15T21:49:05.003Z,8.80
2018-03-15T21:51:32.477Z,8.90
2018-03-15T21:54:00.749Z,8.80
2018-03-15T21:56:29.033Z,8.80
2018-03-15T21:58:57.271Z,8.90
2018-03-15T22:01:24.762Z,8.80
2018-03-15T22:03:53.001Z,8.80
2018-03-15T22:06:20.492Z,8.80
2018-03-15T23:49:41.759Z,8.60
2018-03-15T23:52:09.242Z,8.50
2018-03-15T23:54:36.713Z,8.60
2018-03-15T23:57:04.194Z,8.60
2018-03-15T23:59:32.441Z,8.60
